Time;durP1;ratioP1;P1;durP2;ratioP2;P2;SDS_P1;SDS_P2;PMS_P1;PMS_P2;Temp;Humidity;BMP_temperature;BMP_pressure;BME280_temperature;BME280_humidity;BME280_pressure;Samples;Min_cycle;Max_cycle;Signal;HPM_P1;HPM_P2
2022/01/11 00:00:08;;;;;;;91.28;47.42;;;;;;;2.08;63.73;101575.50;5030940;28;20107;-64
2022/01/11 00:02:38;;;;;;;76.57;42.85;;;;;;;2.00;63.65;101575.56;5029843;28;20493;-59
2022/01/11 00:05:05;;;;;;;75.60;39.55;;;;;;;1.96;63.22;101584.25;5030790;28;20052;-61
2022/01/11 00:07:33;;;;;;;73.00;41.55;;;;;;;1.98;62.89;101589.41;5029935;28;20053;-68
2022/01/11 00:10:01;;;;;;;69.90;39.13;;;;;;;1.92;62.96;101593.75;5030763;28;20103;-60
2022/01/11 00:12:28;;;;;;;70.00;40.55;;;;;;;1.93;62.71;101589.41;5033417;28;20041;-60
2022/01/11 00:14:54;;;;;;;70.78;40.13;;;;;;;1.91;62.56;101586.84;5034103;28;20053;-62
2022/01/11 00:17:21;;;;;;;67.30;39.58;;;;;;;1.91;62.47;101589.44;5034070;28;20103;-60
2022/01/11 00:19:49;;;;;;;63.15;37.50;;;;;;;1.90;62.53;101600.66;5033314;28;20069;-67
2022/01/11 00:22:19;;;;;;;60.08;36.42;;;;;;;1.93;62.53;101600.66;5033271;28;20044;-61
2022/01/11 00:24:46;;;;;;;60.53;36.78;;;;;;;1.98;62.48;101602.34;5033970;28;20049;-60
2022/01/11 00:27:13;;;;;;;62.42;36.70;;;;;;;1.94;62.63;101594.59;5033855;28;20041;-59
2022/01/11 00:29:42;;;;;;;65.47;38.28;;;;;;;1.94;62.57;101601.50;5033981;28;20083;-60
2022/01/11 00:32:14;;;;;;;64.38;38.10;;;;;;;1.95;62.66;101605.81;5033701;28;20096;-67
2022/01/11 00:34:49;;;;;;;64.43;37.63;;;;;;;1.93;62.65;101595.47;5033935;28;20046;-61
2022/01/11 00:37:18;;;;;;;62.72;35.88;;;;;;;1.89;62.86;101601.53;5032272;28;20049;-60
2022/01/11 00:39:45;;;;;;;64.20;37.13;;;;;;;1.86;62.87;101598.97;5033712;28;20053;-61
2022/01/11 00:42:13;;;;;;;61.70;38.10;;;;;;;1.91;62.74;101609.28;5033307;28;20045;-66
2022/01/11 00:44:40;;;;;;;63.20;35.58;;;;;;;1.93;62.90;101607.53;5033851;28;20100;-66
2022/01/11 00:47:09;;;;;;;64.00;35.92;;;;;;;1.91;62.93;101617.91;5033331;28;20479;-60
2022/01/11 00:49:38;;;;;;;61.65;36.65;;;;;;;1.89;62.84;101606.72;5033643;28;20046;-66
2022/01/11 00:52:05;;;;;;;69.03;36.08;;;;;;;1.88;63.08;101615.34;5032812;28;20075;-64
2022/01/11 00:54:32;;;;;;;57.05;34.20;;;;;;;1.88;62.98;101609.28;5032756;28;20045;-64
2022/01/11 00:56:59;;;;;;;61.25;35.33;;;;;;;1.85;63.00;101619.69;5033429;28;20513;-60
2022/01/11 00:59:25;;;;;;;62.65;35.40;;;;;;;1.78;63.16;101617.13;5032935;28;20045;-67
2022/01/11 01:01:52;;;;;;;56.55;34.95;;;;;;;1.79;62.92;101615.38;5033254;28;20467;-60
2022/01/11 01:04:19;;;;;;;57.83;33.70;;;;;;;1.75;63.07;101616.28;5033090;28;20068;-59
2022/01/11 01:06:46;;;;;;;55.30;33.97;;;;;;;1.75;63.06;101617.16;5032836;28;20044;-60
2022/01/11 01:09:13;;;;;;;65.30;37.33;;;;;;;1.73;62.98;101624.06;5032545;28;20413;-61
2022/01/11 01:11:43;;;;;;;55.53;35.42;;;;;;;1.78;62.86;101629.22;5032163;28;20041;-59
2022/01/11 01:14:10;;;;;;;57.03;34.50;;;;;;;1.78;63.04;101627.47;5032733;28;20100;-64
2022/01/11 01:16:37;;;;;;;55.95;34.38;;;;;;;1.77;63.05;101635.25;5032921;28;20045;-66
2022/01/11 01:19:04;;;;;;;60.38;34.65;;;;;;;1.78;63.11;101636.97;5032956;28;20448;-60
2022/01/11 01:21:36;;;;;;;62.28;36.42;;;;;;;1.74;63.05;101635.25;5033024;28;20053;-61
2022/01/11 01:24:10;;;;;;;57.90;34.97;;;;;;;1.78;62.87;101647.34;5032809;28;20053;-60
2022/01/11 01:26:38;;;;;;;56.97;34.67;;;;;;;1.78;63.05;101650.75;5032697;28;20505;-60
2022/01/11 01:29:05;;;;;;;54.38;34.08;;;;;;;1.75;63.11;101647.31;5032141;28;20482;-60
2022/01/11 01:31:32;;;;;;;57.15;34.33;;;;;;;1.78;63.19;101647.34;5031974;28;20107;-59
2022/01/11 01:33:59;;;;;;;54.30;33.80;;;;;;;1.78;63.25;101644.75;5032458;28;20128;-60
2022/01/11 01:36:27;;;;;;;55.72;33.38;;;;;;;1.76;63.33;101644.72;5032471;28;20072;-59
2022/01/11 01:38:54;;;;;;;54.33;34.58;;;;;;;1.72;63.36;101648.22;5032269;28;20049;-60
2022/01/11 01:41:22;;;;;;;50.65;32.20;;;;;;;1.70;63.46;101647.38;5032461;28;20049;-64
2022/01/11 01:43:54;;;;;;;53.97;33.28;;;;;;;1.69;63.36;101652.53;5032606;28;20045;-60
2022/01/11 01:46:22;;;;;;;51.38;32.95;;;;;;;1.72;63.48;101653.38;5031599;28;20047;-60
2022/01/11 01:48:49;;;;;;;53.58;33.25;;;;;;;1.74;63.32;101659.41;5032337;28;20053;-60
2022/01/11 01:51:17;;;;;;;51.97;33.00;;;;;;;1.75;63.54;101647.31;5032292;28;20511;-67
2022/01/11 01:53:46;;;;;;;54.28;33.92;;;;;;;1.77;63.32;101653.38;5032660;28;20049;-59
2022/01/11 01:56:13;;;;;;;53.78;32.63;;;;;;;1.71;63.50;101658.56;5032215;28;20060;-68
2022/01/11 01:58:42;;;;;;;53.25;31.75;;;;;;;1.69;63.44;101652.53;5032435;28;20041;-67
2022/01/11 02:01:12;;;;;;;54.75;31.40;;;;;;;1.67;63.62;101657.72;5031969;28;20493;-67
2022/01/11 02:03:41;;;;;;;52.47;32.67;;;;;;;1.66;63.55;101657.72;5031507;28;20046;-62
2022/01/11 02:06:11;;;;;;;53.83;33.28;;;;;;;1.65;63.63;101656.00;5031942;28;20045;-67
2022/01/11 02:08:39;;;;;;;54.00;33.95;;;;;;;1.65;63.56;101666.34;5031824;28;20059;-60
2022/01/11 02:11:07;;;;;;;56.20;32.67;;;;;;;1.66;63.56;101673.25;5031661;28;20041;-65
2022/01/11 02:13:34;;;;;;;49.78;32.53;;;;;;;1.63;63.72;101682.75;5031857;28;20558;-61
2022/01/11 02:16:02;;;;;;;49.78;30.85;;;;;;;1.61;63.76;101678.44;5031111;28;20046;-60
2022/01/11 02:18:30;;;;;;;49.72;32.00;;;;;;;1.55;63.68;101675.88;5031254;28;20048;-59
2022/01/11 02:20:58;;;;;;;54.15;32.30;;;;;;;1.54;63.77;101674.19;5032124;28;20119;-61
2022/01/11 02:23:27;;;;;;;51.15;30.88;;;;;;;1.55;63.81;101675.88;5031672;28;20049;-60
2022/01/11 02:25:54;;;;;;;53.40;31.75;;;;;;;1.50;63.69;101680.22;5031998;28;20081;-63
2022/01/11 02:28:24;;;;;;;51.55;31.65;;;;;;;1.55;63.48;101684.50;5031764;28;20448;-62
2022/01/11 02:30:52;;;;;;;53.85;32.20;;;;;;;1.59;63.47;101695.72;5031920;28;20053;-60
2022/01/11 02:33:49;;;;;;;54.28;32.22;;;;;;;1.57;63.46;101685.34;5031778;28;20046;-64
2022/01/11 02:36:36;;;;;;;49.92;30.70;;;;;;;1.57;63.55;101695.69;5024916;28;20382;-60
2022/01/11 02:39:04;;;;;;;49.22;30.50;;;;;;;1.55;63.38;101697.44;5031588;28;20053;-66
2022/01/11 02:41:31;;;;;;;49.28;29.70;;;;;;;1.55;63.63;101700.03;5031865;28;20053;-60
2022/01/11 02:43:59;;;;;;;47.58;30.13;;;;;;;1.54;63.89;101703.47;5034300;28;20046;-60
2022/01/11 02:46:27;;;;;;;46.95;29.80;;;;;;;1.55;63.55;101705.22;5035789;28;20497;-66
2022/01/11 02:48:56;;;;;;;51.95;30.08;;;;;;;1.52;63.59;101697.44;5035700;28;20057;-60
2022/01/11 02:51:24;;;;;;;45.97;29.45;;;;;;;1.55;63.62;101709.50;5034749;28;20501;-61
2022/01/11 02:53:53;;;;;;;47.47;31.83;;;;;;;1.54;63.65;101708.66;5035369;28;20596;-59
2022/01/11 02:56:21;;;;;;;43.90;28.70;;;;;;;1.56;63.81;101712.13;5035414;28;20041;-60
2022/01/11 02:58:47;;;;;;;51.25;30.15;;;;;;;1.57;63.64;101711.22;5035528;28;20456;-60
2022/01/11 03:01:15;;;;;;;46.22;29.42;;;;;;;1.52;63.80;101715.56;5035157;28;20412;-65
2022/01/11 03:03:41;;;;;;;48.53;28.77;;;;;;;1.46;63.68;101719.03;5034913;28;20130;-59
2022/01/11 03:06:08;;;;;;;46.85;29.90;;;;;;;1.43;63.72;101715.59;5035200;28;20041;-63
2022/01/11 03:08:42;;;;;;;46.63;28.52;;;;;;;1.36;63.55;101717.34;5034355;28;20046;-59
2022/01/11 03:11:11;;;;;;;44.38;28.73;;;;;;;1.40;63.38;101720.78;5034821;28;20057;-60
2022/01/11 03:13:40;;;;;;;43.70;28.35;;;;;;;1.36;63.26;101716.47;5035276;28;20045;-60
2022/01/11 03:16:08;;;;;;;44.50;28.15;;;;;;;1.33;63.39;101712.16;5035021;28;20058;-62
2022/01/11 03:18:35;;;;;;;44.22;28.17;;;;;;;1.36;63.09;101717.34;5035161;28;20046;-61
2022/01/11 03:21:02;;;;;;;43.65;28.65;;;;;;;1.33;63.10;101717.31;5035075;28;20501;-60
2022/01/11 03:23:29;;;;;;;47.55;28.95;;;;;;;1.34;62.88;101713.03;5034830;28;20096;-60
2022/01/11 03:25:56;;;;;;;46.03;28.35;;;;;;;1.29;63.23;101721.63;5034332;28;20056;-60
2022/01/11 03:28:24;;;;;;;44.78;28.77;;;;;;;1.32;62.89;101720.81;5034923;28;20046;-60
2022/01/11 03:30:53;;;;;;;46.63;27.85;;;;;;;1.29;63.17;101715.63;5035012;28;20096;-67
2022/01/11 03:33:20;;;;;;;48.60;29.45;;;;;;;1.27;63.20;101725.97;5034774;28;20045;-60
2022/01/11 03:35:48;;;;;;;47.85;30.42;;;;;;;1.26;63.12;101725.97;5034911;28;20050;-60
2022/01/11 03:38:16;;;;;;;41.25;28.23;;;;;;;1.20;63.31;101726.84;5034602;28;20046;-59
2022/01/11 03:40:43;;;;;;;48.58;29.50;;;;;;;1.21;63.28;101727.72;5033907;28;20049;-60
2022/01/11 03:43:11;;;;;;;46.60;28.83;;;;;;;1.28;62.74;101726.81;5034720;28;20064;-60
2022/01/11 03:45:38;;;;;;;47.95;29.05;;;;;;;1.28;62.79;101729.41;5034484;28;20504;-59
2022/01/11 03:48:06;;;;;;;49.80;29.35;;;;;;;1.26;62.96;101731.16;5034552;28;20045;-59
2022/01/11 03:50:33;;;;;;;46.78;28.13;;;;;;;1.23;63.02;101736.31;5034432;28;20037;-60
2022/01/11 03:53:12;;;;;;;46.67;29.63;;;;;;;1.23;62.92;101744.94;5034661;28;20046;-59
2022/01/11 03:58:15;;;;;;;44.15;30.13;;;;;;;1.25;62.87;101744.94;5024728;28;20422;-60
2022/01/11 04:00:44;;;;;;;48.92;30.25;;;;;;;1.19;63.08;101748.38;5034229;28;20049;-60
2022/01/11 04:03:11;;;;;;;49.95;28.83;;;;;;;1.18;63.09;101749.28;5031039;28;20052;-63
2022/01/11 04:05:41;;;;;;;48.17;28.20;;;;;;;1.16;62.98;101737.22;5031127;28;20050;-61
2022/01/11 04:08:07;;;;;;;47.95;29.63;;;;;;;1.11;62.95;101753.56;5030858;28;20041;-60
2022/01/11 04:10:34;;;;;;;50.65;28.98;;;;;;;1.05;62.87;101750.97;5030381;28;20502;-67
2022/01/11 04:13:01;;;;;;;47.50;29.42;;;;;;;1.03;62.95;101752.72;5029645;28;20037;-60
2022/01/11 04:15:28;;;;;;;50.85;29.88;;;;;;;1.04;62.92;101763.91;5030830;28;20049;-60
2022/01/11 04:17:56;;;;;;;50.13;29.45;;;;;;;1.02;62.71;101763.06;5030910;28;20076;-60
2022/01/11 04:20:22;;;;;;;47.40;29.75;;;;;;;1.04;62.71;101761.31;5030367;28;20049;-61
2022/01/11 04:22:50;;;;;;;49.13;28.63;;;;;;;1.07;62.57;101754.44;5030219;28;20042;-60
2022/01/11 04:25:18;;;;;;;53.90;29.50;;;;;;;1.06;62.60;101759.63;5030451;28;20103;-60
2022/01/11 04:27:45;;;;;;;60.38;29.30;;;;;;;1.03;62.72;101762.19;5030698;28;20053;-60
2022/01/11 04:30:12;;;;;;;61.55;30.42;;;;;;;1.02;62.64;101758.75;5029632;28;20402;-59
2022/01/11 04:32:38;;;;;;;55.78;28.88;;;;;;;1.01;62.65;101766.50;5030768;28;20095;-67
2022/01/11 04:35:06;;;;;;;55.35;29.83;;;;;;;1.05;62.63;101776.81;5030105;28;20054;-60
2022/01/11 04:37:33;;;;;;;48.58;28.45;;;;;;;1.03;62.83;101778.56;5030357;28;20049;-61
2022/01/11 04:39:59;;;;;;;48.78;29.90;;;;;;;1.00;62.74;101775.97;5030377;28;20053;-59
2022/01/11 04:42:26;;;;;;;55.10;28.65;;;;;;;0.96;62.96;101780.28;5030209;28;20402;-59
2022/01/11 04:44:53;;;;;;;58.78;30.25;;;;;;;0.94;62.82;101788.88;5030457;28;20045;-66
2022/01/11 04:47:19;;;;;;;56.50;29.92;;;;;;;0.89;62.95;101780.28;5029449;28;20052;-60
2022/01/11 04:49:46;;;;;;;59.80;29.35;;;;;;;0.88;62.94;101781.16;5030381;28;20103;-65
2022/01/11 04:52:13;;;;;;;61.35;29.85;;;;;;;0.88;62.80;101804.41;5029927;28;20429;-61
2022/01/11 04:54:40;;;;;;;61.15;29.90;;;;;;;0.91;62.55;101804.41;5030755;28;20437;-60
2022/01/11 04:57:08;;;;;;;59.00;29.50;;;;;;;0.87;62.78;101805.28;5030284;28;20099;-63
2022/01/11 04:59:35;;;;;;;54.42;29.23;;;;;;;0.92;62.90;101803.56;5030233;28;20049;-60
2022/01/11 05:02:02;;;;;;;60.95;30.10;;;;;;;0.90;62.52;101811.31;5028615;28;20057;-60
2022/01/11 05:04:29;;;;;;;55.08;30.95;;;;;;;0.88;62.69;101810.44;5029750;28;20068;-60
2022/01/11 05:06:55;;;;;;;53.92;30.70;;;;;;;0.90;62.84;101808.72;5028789;28;20056;-59
2022/01/11 05:09:22;;;;;;;55.80;31.20;;;;;;;0.95;62.72;101806.13;5029569;28;20080;-65
2022/01/11 05:11:50;;;;;;;54.00;30.55;;;;;;;0.95;62.68;101808.72;5029728;28;20103;-60
2022/01/11 05:14:17;;;;;;;56.25;32.28;;;;;;;0.94;62.76;101819.91;5029591;28;20049;-60
2022/01/11 05:16:43;;;;;;;57.33;31.05;;;;;;;0.93;62.86;101829.38;5029469;28;20456;-60
2022/01/11 05:19:12;;;;;;;75.72;32.55;;;;;;;0.88;62.93;101825.09;5028493;28;20107;-59
2022/01/11 05:21:41;;;;;;;65.88;30.02;;;;;;;0.85;63.09;101817.31;5029448;28;20049;-65
2022/01/11 05:24:08;;;;;;;59.53;30.88;;;;;;;0.86;63.04;101824.22;5028728;28;20046;-66
2022/01/11 05:26:36;;;;;;;53.25;31.17;;;;;;;0.87;63.11;101831.09;5029524;28;20103;-63
2022/01/11 05:29:03;;;;;;;52.63;31.48;;;;;;;0.88;63.09;101822.50;5029415;28;20555;-62
2022/01/11 05:31:30;;;;;;;56.28;28.63;;;;;;;0.84;63.01;101824.22;5029766;28;20053;-60
2022/01/11 05:33:57;;;;;;;48.92;30.58;;;;;;;0.90;62.93;101826.81;5029246;28;20520;-60
2022/01/11 05:36:24;;;;;;;59.28;30.35;;;;;;;0.91;63.01;101822.50;5029341;28;20456;-60
2022/01/11 05:38:50;;;;;;;55.78;31.85;;;;;;;0.87;63.16;101831.09;5028463;28;20049;-63
2022/01/11 05:41:17;;;;;;;49.97;30.55;;;;;;;0.85;63.26;101833.69;5018784;28;20097;-64
2022/01/11 05:43:43;;;;;;;52.03;30.73;;;;;;;0.88;63.09;101831.09;5029036;28;20045;-58
2022/01/11 05:46:10;;;;;;;52.45;30.50;;;;;;;0.86;63.20;101830.22;5029091;28;20099;-64
2022/01/11 05:48:37;;;;;;;51.50;30.90;;;;;;;0.84;63.22;101831.97;5029191;28;20512;-65
2022/01/11 05:51:04;;;;;;;53.97;30.05;;;;;;;0.90;63.19;101838.84;5028869;28;20494;-59
2022/01/11 05:53:30;;;;;;;48.92;30.80;;;;;;;0.89;63.14;101834.53;5029042;28;20103;-58
2022/01/11 05:55:57;;;;;;;46.05;28.52;;;;;;;0.86;63.33;101837.13;5028211;28;20037;-57
2022/01/11 05:58:24;;;;;;;49.30;29.48;;;;;;;0.86;63.25;101843.16;5028697;28;20045;-57
2022/01/11 06:00:50;;;;;;;51.67;29.10;;;;;;;0.86;63.41;101842.31;5028652;28;20053;-58
2022/01/11 06:03:17;;;;;;;52.70;29.42;;;;;;;0.85;63.51;101844.03;5028836;28;20063;-59
2022/01/11 06:05:44;;;;;;;51.28;29.85;;;;;;;0.88;63.37;101849.19;5028560;28;20494;-65
2022/01/11 06:08:16;;;;;;;48.47;28.70;;;;;;;0.86;63.50;101856.06;5028640;28;20068;-59
2022/01/11 06:10:49;;;;;;;43.72;27.70;;;;;;;0.86;63.42;101852.63;5027609;28;20053;-58
2022/01/11 06:13:22;;;;;;;44.45;27.48;;;;;;;0.81;63.30;101869.00;5028351;28;20041;-59
2022/01/11 06:15:48;;;;;;;48.13;28.95;;;;;;;0.81;63.36;101875.88;5028703;28;20810;-59
2022/01/11 06:18:15;;;;;;;47.90;28.77;;;;;;;0.78;63.20;101874.13;5028357;28;20054;-59
2022/01/11 06:20:42;;;;;;;47.88;28.60;;;;;;;0.80;63.00;101881.88;5028619;28;20404;-65
2022/01/11 06:23:09;;;;;;;44.10;27.83;;;;;;;0.86;63.05;101875.88;5028412;28;20049;-59
2022/01/11 06:25:36;;;;;;;47.67;27.10;;;;;;;0.95;62.86;101881.06;5028821;28;20056;-59
2022/01/11 06:28:04;;;;;;;39.08;24.90;;;;;;;1.01;62.74;101885.41;5027283;28;20551;-63
2022/01/11 06:30:31;;;;;;;43.42;26.48;;;;;;;0.99;62.82;101885.41;5028230;28;20804;-57
2022/01/11 06:32:57;;;;;;;45.28;26.55;;;;;;;0.95;63.05;101889.69;5018426;28;20042;-59
2022/01/11 06:35:25;;;;;;;51.42;27.90;;;;;;;0.92;63.15;101894.84;5014778;28;20045;-58
2022/01/11 06:37:52;;;;;;;46.88;28.48;;;;;;;0.87;63.25;101895.72;5012058;28;20061;-58
2022/01/11 06:40:21;;;;;;;45.10;25.48;;;;;;;0.87;63.06;101906.03;5014189;28;20049;-59
2022/01/11 06:42:50;;;;;;;48.92;26.98;;;;;;;0.87;63.11;101908.63;5017098;28;20041;-60
2022/01/11 06:45:18;;;;;;;46.22;28.25;;;;;;;0.86;62.97;101907.75;5027244;28;20041;-61
2022/01/11 06:47:44;;;;;;;42.03;24.67;;;;;;;0.90;63.36;101913.78;5028406;28;20422;-59
2022/01/11 06:50:11;;;;;;;49.38;28.23;;;;;;;1.77;62.53;101909.56;5028017;28;20041;-58
2022/01/11 06:52:39;;;;;;;46.60;27.73;;;;;;;1.41;63.39;101919.91;5028607;28;20124;-61
2022/01/11 06:55:07;;;;;;;52.53;28.55;;;;;;;1.21;63.68;101927.66;5028293;28;20045;-59
2022/01/11 06:57:34;;;;;;;47.10;28.83;;;;;;;1.11;63.60;101924.19;5028087;28;20046;-58
2022/01/11 07:00:03;;;;;;;45.88;27.48;;;;;;;1.00;63.56;101940.53;5027507;28;20054;-63
2022/01/11 07:02:30;;;;;;;54.55;28.80;;;;;;;0.88;63.56;101952.56;5027964;28;20053;-57
2022/01/11 07:04:57;;;;;;;48.88;28.80;;;;;;;0.84;63.45;101949.94;5028123;28;20046;-60
2022/01/11 07:07:23;;;;;;;48.88;29.08;;;;;;;0.77;63.49;101956.81;5027493;28;20049;-58
2022/01/11 07:09:50;;;;;;;49.17;27.02;;;;;;;0.74;63.43;101957.69;5027769;28;20119;-57
2022/01/11 07:12:17;;;;;;;42.60;26.23;;;;;;;0.74;63.15;101952.50;5028068;28;20099;-59
2022/01/11 07:14:44;;;;;;;42.50;25.48;;;;;;;0.75;63.00;101955.94;5028091;28;20051;-65
2022/01/11 07:17:11;;;;;;;46.30;25.55;;;;;;;0.77;62.71;101970.59;5027346;28;20559;-58
2022/01/11 07:19:37;;;;;;;49.55;28.13;;;;;;;0.87;62.31;101980.97;5028331;28;20100;-57
2022/01/11 07:22:04;;;;;;;43.80;26.15;;;;;;;1.05;62.06;101988.78;5027764;28;20046;-58
2022/01/11 07:24:31;;;;;;;46.50;26.90;;;;;;;1.19;61.76;101986.22;5028381;28;20053;-57
2022/01/11 07:26:57;;;;;;;48.10;27.25;;;;;;;1.34;61.22;101989.72;5027657;28;20041;-57
2022/01/11 07:29:25;;;;;;;47.67;25.90;;;;;;;1.50;61.03;101998.38;5027811;28;20053;-60
2022/01/11 07:31:52;;;;;;;42.92;26.73;;;;;;;1.63;60.47;102005.28;5025768;28;20511;-58
2022/01/11 07:34:18;;;;;;;48.75;30.05;;;;;;;1.72;60.37;101997.53;5027067;28;20053;-60
2022/01/11 07:36:45;;;;;;;55.35;32.00;;;;;;;1.77;60.14;101995.81;5022032;28;20045;-59
2022/01/11 07:39:12;;;;;;;64.68;28.77;;;;;;;1.82;59.97;101993.22;5012829;28;20478;-64
2022/01/11 07:41:40;;;;;;;47.33;26.58;;;;;;;1.85;59.94;101990.63;5015171;28;20092;-63
2022/01/11 07:44:07;;;;;;;46.80;25.40;;;;;;;1.89;59.73;101991.50;5014714;28;20100;-60
2022/01/11 07:46:35;;;;;;;45.13;24.90;;;;;;;1.94;59.93;101992.34;5022654;28;20049;-60
2022/01/11 07:49:03;;;;;;;42.97;24.88;;;;;;;1.97;59.82;102000.13;5018675;28;20712;-59
2022/01/11 07:51:30;;;;;;;46.72;25.30;;;;;;;2.03;59.67;102013.06;5019399;28;20053;-62
2022/01/11 07:53:56;;;;;;;46.88;25.27;;;;;;;2.05;59.67;102010.47;5024358;28;20509;-62
2022/01/11 07:56:23;;;;;;;43.65;26.27;;;;;;;2.03;59.71;102013.06;5018715;28;20041;-60
2022/01/11 07:58:50;;;;;;;43.45;26.58;;;;;;;2.04;59.91;102006.16;5029076;28;20502;-66
2022/01/11 08:01:17;;;;;;;48.25;25.80;;;;;;;2.04;59.97;102021.69;5028787;28;20050;-62
2022/01/11 08:03:46;;;;;;;52.90;26.08;;;;;;;2.07;59.90;102027.75;5022610;28;20049;-66
2022/01/11 08:06:13;;;;;;;45.00;26.67;;;;;;;2.10;60.18;102030.31;5029628;28;20084;-65
2022/01/11 08:08:40;;;;;;;39.35;24.35;;;;;;;2.13;60.51;102032.03;5030219;28;20045;-61
2022/01/11 08:11:08;;;;;;;44.95;26.13;;;;;;;2.21;60.25;102040.69;5030356;28;20091;-63
2022/01/11 08:13:34;;;;;;;49.97;28.42;;;;;;;2.31;60.22;102028.59;5030202;28;20442;-65
2022/01/11 08:16:01;;;;;;;54.30;28.92;;;;;;;2.44;60.05;102032.03;5030188;28;20559;-69
2022/01/11 08:18:28;;;;;;;57.28;31.50;;;;;;;2.55;60.05;102026.78;5029097;28;20048;-61
2022/01/11 08:20:55;;;;;;;55.25;30.02;;;;;;;2.70;59.75;102039.72;5030345;28;20050;-61
2022/01/11 08:23:21;;;;;;;55.05;29.80;;;;;;;2.92;59.66;102037.91;5028746;28;20049;-59
2022/01/11 08:25:48;;;;;;;45.17;25.58;;;;;;;3.26;59.04;102048.16;5030510;28;20049;-63
2022/01/11 08:28:15;;;;;;;49.58;26.00;;;;;;;3.58;58.58;102049.69;5029819;28;20844;-61
2022/01/11 08:30:42;;;;;;;41.08;22.55;;;;;;;3.98;57.78;102045.94;5030369;28;20045;-61
2022/01/11 08:33:09;;;;;;;39.63;22.42;;;;;;;4.40;56.75;102056.81;5029382;28;20091;-61
2022/01/11 08:35:36;;;;;;;39.92;21.17;;;;;;;4.73;56.24;102061.72;5030139;28;20045;-61
2022/01/11 08:38:04;;;;;;;45.45;21.17;;;;;;;4.98;55.98;102057.09;5029689;28;20046;-69
2022/01/11 08:40:31;;;;;;;36.97;19.83;;;;;;;5.28;55.64;102070.59;5028590;28;20041;-63
2022/01/11 08:42:58;;;;;;;33.28;21.38;;;;;;;5.44;55.37;102059.97;5029494;28;20049;-62
2022/01/11 08:45:25;;;;;;;39.30;21.52;;;;;;;5.65;55.32;102083.09;5029409;28;20041;-62
2022/01/11 08:47:51;;;;;;;28.67;18.13;;;;;;;5.88;55.02;102080.16;5020380;28;20129;-63
2022/01/11 08:50:18;;;;;;;27.33;19.15;;;;;;;6.13;54.66;102079.81;5023538;28;20049;-61
2022/01/11 08:52:45;;;;;;;31.17;18.77;;;;;;;6.37;54.36;102078.53;5026952;28;20530;-68
2022/01/11 08:55:12;;;;;;;30.83;18.23;;;;;;;6.59;54.22;102087.69;5029164;28;20047;-61
2022/01/11 08:57:39;;;;;;;29.88;17.33;;;;;;;6.81;53.98;102075.97;5028327;28;20563;-61
2022/01/11 09:00:13;;;;;;;30.02;16.50;;;;;;;6.97;53.79;102087.00;5029612;28;20053;-65
2022/01/11 09:02:39;;;;;;;32.10;16.60;;;;;;;7.19;53.38;102083.94;5028637;28;20060;-62
2022/01/11 09:05:07;;;;;;;34.72;17.23;;;;;;;7.37;53.31;102079.22;5019545;28;20057;-62
2022/01/11 09:07:33;;;;;;;27.88;15.70;;;;;;;7.57;52.90;102090.09;5029082;28;20081;-69
2022/01/11 09:10:00;;;;;;;28.10;15.10;;;;;;;7.73;52.82;102082.75;5027239;28;20057;-68
2022/01/11 09:12:27;;;;;;;26.20;14.43;;;;;;;7.90;52.60;102079.75;5022733;28;20072;-63
2022/01/11 09:14:53;;;;;;;24.70;13.70;;;;;;;8.09;52.25;102080.16;5028544;28;20061;-61
2022/01/11 09:17:20;;;;;;;21.17;12.90;;;;;;;8.24;52.00;102076.31;5028853;28;20045;-62
2022/01/11 09:19:47;;;;;;;18.63;12.63;;;;;;;8.40;51.89;102089.00;5029131;28;20505;-63
2022/01/11 09:22:13;;;;;;;24.48;15.70;;;;;;;8.53;51.73;102087.78;5028322;28;20049;-68
2022/01/11 09:24:41;;;;;;;36.88;23.40;;;;;;;8.68;51.60;102083.06;5029148;28;20056;-67
2022/01/11 09:27:08;;;;;;;45.55;27.92;;;;;;;8.81;51.45;102090.53;5012916;28;20405;-61
2022/01/11 09:29:39;;;;;;;33.90;24.42;;;;;;;8.98;51.03;102089.22;5021934;28;20042;-61
2022/01/11 09:32:11;;;;;;;29.60;18.50;;;;;;;9.15;50.81;102097.47;5019837;28;20052;-68
2022/01/11 09:34:39;;;;;;;31.75;20.85;;;;;;;9.30;50.79;102087.41;5018428;28;20050;-68
2022/01/11 09:37:08;;;;;;;34.30;21.60;;;;;;;9.47;50.81;102084.28;5014160;28;20136;-64
2022/01/11 09:39:36;;;;;;;48.15;28.73;;;;;;;9.60;50.78;102084.78;5011366;28;20050;-68
2022/01/11 09:42:05;;;;;;;203.77;108.95;;;;;;;9.72;50.75;102088.78;5015315;28;20050;-62
2022/01/11 09:44:34;;;;;;;77.10;45.85;;;;;;;9.87;50.78;102088.28;5022765;28;20042;-66
2022/01/11 09:47:01;;;;;;;53.47;33.97;;;;;;;10.01;50.68;102081.75;5028225;28;20067;-61
2022/01/11 09:49:28;;;;;;;92.53;57.78;;;;;;;10.16;50.67;102083.88;5016244;28;20045;-61
2022/01/11 09:51:56;;;;;;;167.30;92.05;;;;;;;10.29;50.80;102082.53;5016896;28;20077;-62
2022/01/11 09:54:25;;;;;;;63.17;36.65;;;;;;;10.40;50.78;102082.22;5024606;28;20049;-62
2022/01/11 09:56:52;;;;;;;56.92;35.25;;;;;;;10.56;50.63;102095.69;5028346;28;20046;-62
2022/01/11 09:59:19;;;;;;;40.92;27.45;;;;;;;10.70;50.18;102099.56;5025596;28;20387;-62
2022/01/11 10:01:46;;;;;;;43.35;29.23;;;;;;;10.79;49.96;102093.97;5014078;28;20191;-63
2022/01/11 10:04:16;;;;;;;68.35;41.50;;;;;;;10.85;49.88;102099.00;5021718;28;20090;-62
2022/01/11 10:06:52;;;;;;;162.63;98.07;;;;;;;10.99;49.76;102095.88;5014757;28;20050;-62
2022/01/11 10:09:21;;;;;;;114.10;73.80;;;;;;;11.08;49.61;102090.31;5010503;28;20042;-63
2022/01/11 10:11:57;;;;;;;50.72;36.00;;;;;;;11.18;49.51;102095.22;5022087;28;20516;-62
2022/01/11 10:14:31;;;;;;;35.50;25.05;;;;;;;11.27;49.10;102093.13;5025831;28;20489;-62
2022/01/11 10:17:11;;;;;;;64.45;40.95;;;;;;;11.38;48.85;102087.44;5027316;28;20934;-69
2022/01/11 10:19:42;;;;;;;62.60;36.72;;;;;;;11.51;48.26;102093.06;5028735;28;20075;-69
2022/01/11 10:22:13;;;;;;;76.93;43.92;;;;;;;11.62;47.92;102089.16;5014971;28;20095;-68
2022/01/11 10:24:49;;;;;;;82.28;45.13;;;;;;;11.73;47.56;102085.19;5028589;28;20045;-68
2022/01/11 10:27:21;;;;;;;68.97;37.72;;;;;;;11.84;47.28;102084.75;5014532;28;20045;-68
2022/01/11 10:29:58;;;;;;;65.63;36.53;;;;;;;11.93;46.98;102086.16;5028444;28;20045;-67
2022/01/11 10:32:31;;;;;;;101.22;53.65;;;;;;;12.04;46.33;102096.28;5026769;28;20041;-67
2022/01/11 10:35:01;;;;;;;94.18;48.35;;;;;;;12.10;46.14;102096.03;5028477;28;20135;-61
2022/01/11 10:37:37;;;;;;;134.60;73.10;;;;;;;12.20;45.65;102089.47;5013336;28;20881;-60
2022/01/11 10:40:05;;;;;;;34.25;27.02;;;;;;;12.23;45.61;102086.69;5028062;28;20045;-67
2022/01/11 10:42:33;;;;;;;42.42;30.58;;;;;;;12.30;44.96;102075.91;5027081;28;20060;-61
2022/01/11 10:45:07;;;;;;;58.05;37.75;;;;;;;12.40;44.74;102071.97;5028114;28;20045;-61
2022/01/11 10:47:40;;;;;;;215.10;130.10;;;;;;;12.47;44.04;102065.53;5027738;28;20057;-68
2022/01/11 10:50:27;;;;;;;58.97;36.10;;;;;;;12.51;43.70;102053.94;5015957;28;20111;-61
2022/01/11 10:52:56;;;;;;;72.85;41.10;;;;;;;12.51;43.29;102050.44;5014850;28;20041;-60
2022/01/11 10:55:25;;;;;;;94.53;52.67;;;;;;;12.56;42.94;102059.84;5026981;28;20045;-60
2022/01/11 10:57:55;;;;;;;89.53;45.33;;;;;;;12.57;42.68;102056.28;5017534;28;20058;-60
2022/01/11 11:00:52;;;;;;;200.93;97.53;;;;;;;12.47;42.38;102062.00;5027531;28;20823;-60
2022/01/11 11:03:25;;;;;;;37.83;23.77;;;;;;;12.46;42.34;102071.69;5018957;28;20522;-60
2022/01/11 11:05:53;;;;;;;25.88;18.05;;;;;;;12.42;42.40;102064.88;5030918;28;20049;-59
2022/01/11 11:08:24;;;;;;;34.70;22.90;;;;;;;12.32;42.24;102068.81;5030552;28;20390;-59
2022/01/11 11:11:05;;;;;;;32.58;19.15;;;;;;;12.13;42.48;102061.69;5030970;28;20049;-59
2022/01/11 11:13:34;;;;;;;31.08;18.92;;;;;;;12.02;42.61;102066.53;5030517;28;20481;-60
2022/01/11 11:16:16;;;;;;;78.35;40.72;;;;;;;11.85;42.67;102064.59;5020315;28;20041;-67
2022/01/11 11:18:47;;;;;;;28.60;19.25;;;;;;;11.64;42.65;102056.63;5031632;28;20045;-59
2022/01/11 11:21:26;;;;;;;21.80;13.73;;;;;;;11.52;42.86;102059.75;5031077;28;20045;-66
2022/01/11 11:23:57;;;;;;;17.02;10.90;;;;;;;11.33;43.02;102057.84;5031175;28;20651;-59